sensor_id;sensor_type;location;lat;lon;timestamp;pressure;altitude;pressure_sealevel;temperature;humidity
76827;BME280;65788;52.284;20.890;2023-03-01T00:01:21;101749.15;;;18.51;32.28
76827;BME280;65788;52.284;20.890;2023-03-01T00:03:49;101744.25;;;18.51;32.23
76827;BME280;65788;52.284;20.890;2023-03-01T00:06:17;101743.17;;;18.47;32.21
76827;BME280;65788;52.284;20.890;2023-03-01T00:08:44;101742.24;;;18.47;32.20
76827;BME280;65788;52.284;20.890;2023-03-01T00:11:16;101744.46;;;18.45;32.16
76827;BME280;65788;52.284;20.890;2023-03-01T00:13:44;101742.20;;;18.47;32.09
76827;BME280;65788;52.284;20.890;2023-03-01T00:16:31;101738.03;;;18.45;32.12
76827;BME280;65788;52.284;20.890;2023-03-01T00:19:00;101733.91;;;18.44;32.06
76827;BME280;65788;52.284;20.890;2023-03-01T00:21:27;101733.02;;;18.40;32.03
76827;BME280;65788;52.284;20.890;2023-03-01T00:23:55;101727.08;;;18.39;31.99
76827;BME280;65788;52.284;20.890;2023-03-01T00:26:23;101723.43;;;18.37;31.99
76827;BME280;65788;52.284;20.890;2023-03-01T00:28:50;101723.33;;;18.36;31.98
76827;BME280;65788;52.284;20.890;2023-03-01T00:31:19;101721.88;;;18.34;31.98
76827;BME280;65788;52.284;20.890;2023-03-01T00:33:46;101718.27;;;18.32;31.93
76827;BME280;65788;52.284;20.890;2023-03-01T00:36:14;101713.55;;;18.30;31.91
76827;BME280;65788;52.284;20.890;2023-03-01T00:38:42;101714.92;;;18.28;31.97
76827;BME280;65788;52.284;20.890;2023-03-01T00:41:12;101720.02;;;18.28;31.85
76827;BME280;65788;52.284;20.890;2023-03-01T00:43:41;101721.91;;;18.30;31.80
76827;BME280;65788;52.284;20.890;2023-03-01T00:46:12;101722.95;;;18.25;31.80
76827;BME280;65788;52.284;20.890;2023-03-01T00:48:40;101726.21;;;18.24;31.79
76827;BME280;65788;52.284;20.890;2023-03-01T00:53:34;101727.27;;;18.15;31.95
76827;BME280;65788;52.284;20.890;2023-03-01T00:56:02;101721.27;;;18.16;31.90
76827;BME280;65788;52.284;20.890;2023-03-01T00:58:29;101720.75;;;18.16;31.86
76827;BME280;65788;52.284;20.890;2023-03-01T01:00:57;101716.08;;;18.16;31.87
76827;BME280;65788;52.284;20.890;2023-03-01T01:03:24;101716.85;;;18.13;31.92
76827;BME280;65788;52.284;20.890;2023-03-01T01:05:52;101713.05;;;18.12;31.90
76827;BME280;65788;52.284;20.890;2023-03-01T01:08:20;101707.56;;;18.09;31.91
76827;BME280;65788;52.284;20.890;2023-03-01T01:10:47;101696.97;;;18.09;31.88
76827;BME280;65788;52.284;20.890;2023-03-01T01:13:14;101695.52;;;18.09;31.87
76827;BME280;65788;52.284;20.890;2023-03-01T01:15:41;101693.13;;;18.09;31.93
76827;BME280;65788;52.284;20.890;2023-03-01T01:18:08;101686.02;;;18.08;31.95
76827;BME280;65788;52.284;20.890;2023-03-01T01:20:35;101690.83;;;18.05;32.03
76827;BME280;65788;52.284;20.890;2023-03-01T01:23:05;101691.26;;;18.03;32.04
76827;BME280;65788;52.284;20.890;2023-03-01T01:25:34;101688.27;;;18.06;31.97
76827;BME280;65788;52.284;20.890;2023-03-01T01:28:00;101680.34;;;18.03;32.02
76827;BME280;65788;52.284;20.890;2023-03-01T01:30:27;101680.59;;;18.01;32.05
76827;BME280;65788;52.284;20.890;2023-03-01T01:32:55;101681.85;;;17.99;32.04
76827;BME280;65788;52.284;20.890;2023-03-01T01:35:21;101677.77;;;17.98;32.06
76827;BME280;65788;52.284;20.890;2023-03-01T01:37:48;101677.50;;;17.99;32.02
76827;BME280;65788;52.284;20.890;2023-03-01T01:40:16;101673.23;;;17.96;32.08
76827;BME280;65788;52.284;20.890;2023-03-01T01:42:44;101677.86;;;17.96;32.06
76827;BME280;65788;52.284;20.890;2023-03-01T01:45:26;101681.36;;;17.96;32.05
76827;BME280;65788;52.284;20.890;2023-03-01T01:47:56;101675.20;;;17.95;32.06
76827;BME280;65788;52.284;20.890;2023-03-01T01:50:26;101671.98;;;17.96;32.04
76827;BME280;65788;52.284;20.890;2023-03-01T01:52:53;101664.19;;;17.94;32.03
76827;BME280;65788;52.284;20.890;2023-03-01T01:55:22;101659.64;;;17.89;32.12
76827;BME280;65788;52.284;20.890;2023-03-01T01:57:54;101664.30;;;17.88;32.12
76827;BME280;65788;52.284;20.890;2023-03-01T02:00:24;101666.94;;;17.88;32.18
76827;BME280;65788;52.284;20.890;2023-03-01T02:02:55;101664.53;;;17.85;32.46
76827;BME280;65788;52.284;20.890;2023-03-01T02:05:29;101663.83;;;17.86;32.46
76827;BME280;65788;52.284;20.890;2023-03-01T02:07:59;101655.38;;;17.86;32.51
76827;BME280;65788;52.284;20.890;2023-03-01T02:10:26;101657.37;;;17.85;32.57
76827;BME280;65788;52.284;20.890;2023-03-01T02:12:55;101655.48;;;17.83;32.61
76827;BME280;65788;52.284;20.890;2023-03-01T02:15:24;101654.27;;;17.83;32.60
76827;BME280;65788;52.284;20.890;2023-03-01T02:17:57;101657.35;;;17.82;32.63
76827;BME280;65788;52.284;20.890;2023-03-01T02:23:12;101652.71;;;17.82;32.62
76827;BME280;65788;52.284;20.890;2023-03-01T02:30:43;101650.98;;;17.76;32.68
76827;BME280;65788;52.284;20.890;2023-03-01T02:33:30;101645.36;;;17.77;32.62
76827;BME280;65788;52.284;20.890;2023-03-01T02:36:08;101640.37;;;17.74;32.68
76827;BME280;65788;52.284;20.890;2023-03-01T02:38:36;101638.05;;;17.73;32.66
76827;BME280;65788;52.284;20.890;2023-03-01T02:41:04;101636.54;;;17.72;32.67
76827;BME280;65788;52.284;20.890;2023-03-01T02:43:33;101636.50;;;17.70;32.66
76827;BME280;65788;52.284;20.890;2023-03-01T02:46:05;101634.71;;;17.70;32.63
76827;BME280;65788;52.284;20.890;2023-03-01T02:51:26;101640.80;;;17.68;32.85
76827;BME280;65788;52.284;20.890;2023-03-01T02:54:10;101637.98;;;17.67;32.62
76827;BME280;65788;52.284;20.890;2023-03-01T02:56:40;101635.52;;;17.68;32.60
76827;BME280;65788;52.284;20.890;2023-03-01T02:59:08;101637.01;;;17.66;32.64
76827;BME280;65788;52.284;20.890;2023-03-01T03:01:36;101623.40;;;17.63;32.65
76827;BME280;65788;52.284;20.890;2023-03-01T03:04:07;101616.27;;;17.64;32.61
76827;BME280;65788;52.284;20.890;2023-03-01T03:06:38;101614.89;;;17.63;32.60
76827;BME280;65788;52.284;20.890;2023-03-01T03:09:05;101619.97;;;17.62;32.60
76827;BME280;65788;52.284;20.890;2023-03-01T03:11:33;101616.19;;;17.58;32.65
76827;BME280;65788;52.284;20.890;2023-03-01T03:14:00;101615.60;;;17.60;32.57
76827;BME280;65788;52.284;20.890;2023-03-01T03:16:27;101613.11;;;17.58;32.59
76827;BME280;65788;52.284;20.890;2023-03-01T03:18:56;101611.14;;;17.57;32.58
76827;BME280;65788;52.284;20.890;2023-03-01T03:21:32;101603.14;;;17.57;32.52
76827;BME280;65788;52.284;20.890;2023-03-01T03:24:01;101597.25;;;17.57;32.51
76827;BME280;65788;52.284;20.890;2023-03-01T03:26:29;101594.55;;;17.55;32.51
76827;BME280;65788;52.284;20.890;2023-03-01T03:28:56;101595.59;;;17.53;32.52
76827;BME280;65788;52.284;20.890;2023-03-01T03:31:26;101594.45;;;17.53;32.51
76827;BME280;65788;52.284;20.890;2023-03-01T03:33:54;101589.12;;;17.54;32.47
76827;BME280;65788;52.284;20.890;2023-03-01T03:36:22;101587.52;;;17.55;32.43
76827;BME280;65788;52.284;20.890;2023-03-01T03:38:50;101588.20;;;17.53;32.45
76827;BME280;65788;52.284;20.890;2023-03-01T03:41:17;101593.46;;;17.50;32.70
76827;BME280;65788;52.284;20.890;2023-03-01T03:43:44;101598.81;;;17.50;32.48
76827;BME280;65788;52.284;20.890;2023-03-01T03:46:12;101598.00;;;17.50;32.48
76827;BME280;65788;52.284;20.890;2023-03-01T03:48:41;101601.44;;;17.49;32.49
76827;BME280;65788;52.284;20.890;2023-03-01T03:51:13;101598.66;;;17.49;32.48
76827;BME280;65788;52.284;20.890;2023-03-01T03:53:40;101592.34;;;17.47;32.47
76827;BME280;65788;52.284;20.890;2023-03-01T03:56:07;101584.73;;;17.46;32.50
76827;BME280;65788;52.284;20.890;2023-03-01T03:58:34;101577.23;;;17.46;32.45
76827;BME280;65788;52.284;20.890;2023-03-01T04:01:02;101585.08;;;17.46;32.46
76827;BME280;65788;52.284;20.890;2023-03-01T04:03:30;101589.64;;;17.47;32.45
76827;BME280;65788;52.284;20.890;2023-03-01T04:05:59;101583.45;;;17.46;32.43
76827;BME280;65788;52.284;20.890;2023-03-01T04:08:26;101578.41;;;17.45;32.43
76827;BME280;65788;52.284;20.890;2023-03-01T04:10:58;101571.21;;;17.44;32.44
76827;BME280;65788;52.284;20.890;2023-03-01T04:13:26;101567.67;;;17.40;32.48
76827;BME280;65788;52.284;20.890;2023-03-01T04:15:53;101565.10;;;17.42;32.45
76827;BME280;65788;52.284;20.890;2023-03-01T04:18:22;101561.92;;;17.43;32.40
76827;BME280;65788;52.284;20.890;2023-03-01T04:20:50;101568.60;;;17.42;32.40
76827;BME280;65788;52.284;20.890;2023-03-01T04:23:23;101581.85;;;17.41;32.43
76827;BME280;65788;52.284;20.890;2023-03-01T04:28:29;101575.63;;;17.40;32.37
76827;BME280;65788;52.284;20.890;2023-03-01T04:30:57;101573.43;;;17.39;32.35
76827;BME280;65788;52.284;20.890;2023-03-01T04:33:25;101564.08;;;17.35;32.40
76827;BME280;65788;52.284;20.890;2023-03-01T04:35:52;101563.79;;;17.36;32.41
76827;BME280;65788;52.284;20.890;2023-03-01T04:38:22;101557.02;;;17.36;32.46
76827;BME280;65788;52.284;20.890;2023-03-01T04:40:49;101552.26;;;17.30;32.88
76827;BME280;65788;52.284;20.890;2023-03-01T04:43:16;101554.27;;;17.32;33.10
76827;BME280;65788;52.284;20.890;2023-03-01T04:45:44;101549.13;;;17.37;33.13
76827;BME280;65788;52.284;20.890;2023-03-01T04:48:11;101553.49;;;17.34;33.25
76827;BME280;65788;52.284;20.890;2023-03-01T04:50:38;101547.95;;;17.34;33.17
76827;BME280;65788;52.284;20.890;2023-03-01T04:53:05;101545.98;;;17.37;33.08
76827;BME280;65788;52.284;20.890;2023-03-01T04:55:33;101542.89;;;17.45;32.95
76827;BME280;65788;52.284;20.890;2023-03-01T04:58:00;101535.08;;;17.45;33.00
76827;BME280;65788;52.284;20.890;2023-03-01T05:00:28;101533.98;;;17.46;33.00
76827;BME280;65788;52.284;20.890;2023-03-01T05:02:56;101537.36;;;17.49;33.05
76827;BME280;65788;52.284;20.890;2023-03-01T05:05:28;101534.54;;;17.56;32.92
76827;BME280;65788;52.284;20.890;2023-03-01T05:07:56;101528.91;;;17.66;32.71
76827;BME280;65788;52.284;20.890;2023-03-01T05:10:24;101528.59;;;17.76;32.62
76827;BME280;65788;52.284;20.890;2023-03-01T05:12:52;101533.80;;;17.82;32.53
76827;BME280;65788;52.284;20.890;2023-03-01T05:15:19;101536.33;;;17.89;32.42
76827;BME280;65788;52.284;20.890;2023-03-01T05:17:48;101546.80;;;17.94;32.30
76827;BME280;65788;52.284;20.890;2023-03-01T05:20:16;101545.10;;;17.99;32.21
76827;BME280;65788;52.284;20.890;2023-03-01T05:22:43;101541.66;;;18.06;32.09
76827;BME280;65788;52.284;20.890;2023-03-01T05:25:11;101541.52;;;18.10;32.02
76827;BME280;65788;52.284;20.890;2023-03-01T05:27:40;101546.11;;;18.15;31.94
76827;BME280;65788;52.284;20.890;2023-03-01T05:30:08;101553.39;;;18.22;31.83
76827;BME280;65788;52.284;20.890;2023-03-01T05:32:45;101555.89;;;18.26;31.76
76827;BME280;65788;52.284;20.890;2023-03-01T05:35:14;101561.81;;;18.29;31.72
76827;BME280;65788;52.284;20.890;2023-03-01T05:37:42;101563.47;;;18.34;31.66
76827;BME280;65788;52.284;20.890;2023-03-01T05:40:10;101572.05;;;18.36;31.61
76827;BME280;65788;52.284;20.890;2023-03-01T05:42:45;101576.14;;;18.40;31.55
76827;BME280;65788;52.284;20.890;2023-03-01T05:45:15;101574.25;;;18.44;31.49
76827;BME280;65788;52.284;20.890;2023-03-01T05:47:43;101574.05;;;18.49;31.43
76827;BME280;65788;52.284;20.890;2023-03-01T05:50:11;101574.98;;;18.51;31.36
76827;BME280;65788;52.284;20.890;2023-03-01T05:52:40;101575.42;;;18.52;31.36
76827;BME280;65788;52.284;20.890;2023-03-01T05:55:07;101579.58;;;18.56;31.29
76827;BME280;65788;52.284;20.890;2023-03-01T05:57:35;101576.02;;;18.60;31.22
76827;BME280;65788;52.284;20.890;2023-03-01T06:00:02;101573.73;;;18.63;31.16
76827;BME280;65788;52.284;20.890;2023-03-01T06:02:30;101574.80;;;18.64;31.13
76827;BME280;65788;52.284;20.890;2023-03-01T06:04:57;101575.83;;;18.67;31.07
76827;BME280;65788;52.284;20.890;2023-03-01T06:07:25;101571.23;;;18.71;30.99
76827;BME280;65788;52.284;20.890;2023-03-01T06:09:52;101574.33;;;18.75;30.93
76827;BME280;65788;52.284;20.890;2023-03-01T06:12:20;101574.74;;;18.78;30.88
76827;BME280;65788;52.284;20.890;2023-03-01T06:14:47;101574.27;;;18.83;30.77
76827;BME280;65788;52.284;20.890;2023-03-01T06:17:14;101575.69;;;18.83;30.75
76827;BME280;65788;52.284;20.890;2023-03-01T06:19:41;101570.98;;;18.87;30.67
76827;BME280;65788;52.284;20.890;2023-03-01T06:22:09;101568.06;;;18.90;30.63
76827;BME280;65788;52.284;20.890;2023-03-01T06:24:36;101568.25;;;18.94;30.56
76827;BME280;65788;52.284;20.890;2023-03-01T06:27:03;101562.81;;;18.97;30.51
76827;BME280;65788;52.284;20.890;2023-03-01T06:29:30;101563.58;;;18.99;30.46
76827;BME280;65788;52.284;20.890;2023-03-01T06:31:57;101562.16;;;19.02;30.39
76827;BME280;65788;52.284;20.890;2023-03-01T06:34:24;101565.29;;;19.05;30.32
76827;BME280;65788;52.284;20.890;2023-03-01T06:36:55;101567.36;;;19.07;30.26
76827;BME280;65788;52.284;20.890;2023-03-01T06:39:22;101563.19;;;19.12;30.18
76827;BME280;65788;52.284;20.890;2023-03-01T06:41:51;101564.11;;;19.13;30.16
76827;BME280;65788;52.284;20.890;2023-03-01T06:44:17;101568.62;;;19.15;30.20
76827;BME280;65788;52.284;20.890;2023-03-01T06:46:45;101568.75;;;19.19;30.21
76827;BME280;65788;52.284;20.890;2023-03-01T06:49:12;101565.71;;;19.21;30.18
76827;BME280;65788;52.284;20.890;2023-03-01T06:51:39;101564.88;;;19.23;30.22
76827;BME280;65788;52.284;20.890;2023-03-01T06:54:07;101563.21;;;19.26;30.20
76827;BME280;65788;52.284;20.890;2023-03-01T06:56:34;101567.95;;;19.29;30.20
76827;BME280;65788;52.284;20.890;2023-03-01T06:59:01;101566.10;;;19.28;30.29
76827;BME280;65788;52.284;20.890;2023-03-01T07:01:29;101573.00;;;19.31;30.27
76827;BME280;65788;52.284;20.890;2023-03-01T07:03:56;101578.41;;;19.29;30.28
76827;BME280;65788;52.284;20.890;2023-03-01T07:06:23;101579.02;;;19.30;30.25
76827;BME280;65788;52.284;20.890;2023-03-01T07:08:51;101579.33;;;19.30;30.21
76827;BME280;65788;52.284;20.890;2023-03-01T07:11:18;101579.27;;;19.32;30.16
76827;BME280;65788;52.284;20.890;2023-03-01T07:13:45;101581.09;;;19.35;30.12
76827;BME280;65788;52.284;20.890;2023-03-01T07:16:12;101579.83;;;19.38;30.09
76827;BME280;65788;52.284;20.890;2023-03-01T07:18:41;101578.15;;;19.43;30.02
76827;BME280;65788;52.284;20.890;2023-03-01T07:21:09;101573.27;;;19.45;30.00
76827;BME280;65788;52.284;20.890;2023-03-01T07:23:38;101565.36;;;19.47;29.96
76827;BME280;65788;52.284;20.890;2023-03-01T07:26:05;101562.35;;;19.49;29.92
76827;BME280;65788;52.284;20.890;2023-03-01T07:28:33;101557.46;;;19.51;29.86
76827;BME280;65788;52.284;20.890;2023-03-01T07:31:05;101558.16;;;19.53;29.82
76827;BME280;65788;52.284;20.890;2023-03-01T07:33:33;101546.48;;;19.56;29.78
76827;BME280;65788;52.284;20.890;2023-03-01T07:36:01;101546.44;;;19.63;31.15
76827;BME280;65788;52.284;20.890;2023-03-01T07:38:29;101550.16;;;19.81;32.43
76827;BME280;65788;52.284;20.890;2023-03-01T07:41:00;101556.42;;;19.94;32.29
76827;BME280;65788;52.284;20.890;2023-03-01T07:43:31;101556.17;;;19.99;32.46
76827;BME280;65788;52.284;20.890;2023-03-01T07:46:01;101558.80;;;20.06;33.15
76827;BME280;65788;52.284;20.890;2023-03-01T07:48:29;101557.77;;;20.16;33.29
76827;BME280;65788;52.284;20.890;2023-03-01T07:51:00;101559.23;;;20.15;33.45
76827;BME280;65788;52.284;20.890;2023-03-01T07:53:27;101555.26;;;20.15;32.90
76827;BME280;65788;52.284;20.890;2023-03-01T07:56:10;101557.64;;;20.29;33.09
76827;BME280;65788;52.284;20.890;2023-03-01T07:58:39;101556.44;;;20.50;32.64
76827;BME280;65788;52.284;20.890;2023-03-01T08:01:07;101560.95;;;20.42;30.68
76827;BME280;65788;52.284;20.890;2023-03-01T08:03:35;101564.94;;;20.28;30.31
76827;BME280;65788;52.284;20.890;2023-03-01T08:06:03;101559.95;;;20.24;30.34
76827;BME280;65788;52.284;20.890;2023-03-01T08:08:31;101558.70;;;20.23;30.65
76827;BME280;65788;52.284;20.890;2023-03-01T08:10:58;101552.44;;;20.81;33.38
76827;BME280;65788;52.284;20.890;2023-03-01T08:13:25;101555.67;;;20.83;33.51
76827;BME280;65788;52.284;20.890;2023-03-01T08:15:52;101556.83;;;20.84;33.77
76827;BME280;65788;52.284;20.890;2023-03-01T08:18:20;101554.71;;;20.93;32.01
76827;BME280;65788;52.284;20.890;2023-03-01T08:20:47;101556.45;;;21.05;32.45
76827;BME280;65788;52.284;20.890;2023-03-01T08:23:15;101552.73;;;21.16;31.79
76827;BME280;65788;52.284;20.890;2023-03-01T08:25:41;101553.88;;;21.12;31.52
76827;BME280;65788;52.284;20.890;2023-03-01T08:28:09;101555.15;;;21.12;31.36
76827;BME280;65788;52.284;20.890;2023-03-01T08:30:36;101557.52;;;21.15;31.30
76827;BME280;65788;52.284;20.890;2023-03-01T08:33:03;101555.65;;;21.18;31.00
76827;BME280;65788;52.284;20.890;2023-03-01T08:35:30;101553.43;;;21.28;31.04
76827;BME280;65788;52.284;20.890;2023-03-01T08:37:57;101549.69;;;21.24;30.47
76827;BME280;65788;52.284;20.890;2023-03-01T08:40:26;101542.92;;;21.33;30.72
76827;BME280;65788;52.284;20.890;2023-03-01T08:42:53;101543.20;;;21.46;31.13
76827;BME280;65788;52.284;20.890;2023-03-01T08:45:20;101544.77;;;21.15;30.62
76827;BME280;65788;52.284;20.890;2023-03-01T08:47:50;101545.82;;;19.66;30.75
76827;BME280;65788;52.284;20.890;2023-03-01T08:50:18;101547.84;;;18.59;32.08
76827;BME280;65788;52.284;20.890;2023-03-01T08:52:46;101548.50;;;19.53;31.55
76827;BME280;65788;52.284;20.890;2023-03-01T08:55:14;101557.90;;;20.03;31.30
76827;BME280;65788;52.284;20.890;2023-03-01T08:57:43;101562.52;;;18.80;31.15
76827;BME280;65788;52.284;20.890;2023-03-01T09:00:13;101563.86;;;17.41;33.01
76827;BME280;65788;52.284;20.890;2023-03-01T09:02:42;101562.98;;;18.17;33.53
76827;BME280;65788;52.284;20.890;2023-03-01T09:05:09;101556.81;;;19.53;31.44
76827;BME280;65788;52.284;20.890;2023-03-01T09:07:36;101559.90;;;19.00;31.08
76827;BME280;65788;52.284;20.890;2023-03-01T09:10:03;101563.01;;;18.75;32.77
76827;BME280;65788;52.284;20.890;2023-03-01T09:12:32;101556.92;;;20.21;30.83
76827;BME280;65788;52.284;20.890;2023-03-01T09:14:59;101556.73;;;20.76;31.20
76827;BME280;65788;52.284;20.890;2023-03-01T09:17:26;101555.34;;;20.98;30.60
76827;BME280;65788;52.284;20.890;2023-03-01T09:19:53;101550.60;;;21.09;29.82
76827;BME280;65788;52.284;20.890;2023-03-01T09:22:20;101545.88;;;21.15;29.32
76827;BME280;65788;52.284;20.890;2023-03-01T09:24:47;101548.07;;;21.25;29.84
76827;BME280;65788;52.284;20.890;2023-03-01T09:27:16;101548.65;;;21.33;30.24
76827;BME280;65788;52.284;20.890;2023-03-01T09:29:45;101547.33;;;21.36;29.71
76827;BME280;65788;52.284;20.890;2023-03-01T09:32:12;101541.80;;;21.34;29.29
76827;BME280;65788;52.284;20.890;2023-03-01T09:34:40;101539.06;;;21.36;29.17
76827;BME280;65788;52.284;20.890;2023-03-01T09:37:27;101532.83;;;21.48;29.01
76827;BME280;65788;52.284;20.890;2023-03-01T09:39:54;101529.20;;;21.44;28.83
76827;BME280;65788;52.284;20.890;2023-03-01T09:42:21;101525.14;;;21.45;28.79
76827;BME280;65788;52.284;20.890;2023-03-01T09:44:53;101526.70;;;21.47;28.84
76827;BME280;65788;52.284;20.890;2023-03-01T09:47:24;101525.75;;;21.38;28.79
76827;BME280;65788;52.284;20.890;2023-03-01T09:55:05;101523.55;;;21.21;28.72
76827;BME280;65788;52.284;20.890;2023-03-01T09:57:43;101513.77;;;21.16;28.74
76827;BME280;65788;52.284;20.890;2023-03-01T10:00:24;101510.16;;;21.14;28.75
76827;BME280;65788;52.284;20.890;2023-03-01T10:03:11;101507.55;;;21.13;28.73
76827;BME280;65788;52.284;20.890;2023-03-01T10:08:23;101500.33;;;21.09;28.71
76827;BME280;65788;52.284;20.890;2023-03-01T10:10:52;101494.11;;;21.06;28.73
76827;BME280;65788;52.284;20.890;2023-03-01T10:15:57;101489.01;;;21.05;28.69
76827;BME280;65788;52.284;20.890;2023-03-01T10:18:29;101484.01;;;21.07;28.69
76827;BME280;65788;52.284;20.890;2023-03-01T10:21:17;101479.73;;;21.07;28.60
76827;BME280;65788;52.284;20.890;2023-03-01T10:23:45;101479.63;;;21.23;28.80
76827;BME280;65788;52.284;20.890;2023-03-01T10:31:45;101478.16;;;21.41;28.50
76827;BME280;65788;52.284;20.890;2023-03-01T10:34:18;101474.68;;;21.49;29.19
76827;BME280;65788;52.284;20.890;2023-03-01T10:36:50;101478.62;;;21.48;28.60
76827;BME280;65788;52.284;20.890;2023-03-01T10:39:19;101477.31;;;21.53;28.37
76827;BME280;65788;52.284;20.890;2023-03-01T10:41:56;101470.77;;;21.65;28.48
76827;BME280;65788;52.284;20.890;2023-03-01T10:44:44;101473.05;;;21.61;28.29
76827;BME280;65788;52.284;20.890;2023-03-01T10:47:17;101473.44;;;21.59;28.27
76827;BME280;65788;52.284;20.890;2023-03-01T10:50:05;101471.77;;;21.63;28.20
76827;BME280;65788;52.284;20.890;2023-03-01T10:52:35;101468.23;;;21.71;28.03
76827;BME280;65788;52.284;20.890;2023-03-01T10:55:23;101461.63;;;21.72;28.24
76827;BME280;65788;52.284;20.890;2023-03-01T10:57:53;101462.02;;;21.79;28.04
76827;BME280;65788;52.284;20.890;2023-03-01T11:00:32;101464.17;;;21.84;28.54
76827;BME280;65788;52.284;20.890;2023-03-01T11:03:09;101462.34;;;21.98;28.42
76827;BME280;65788;52.284;20.890;2023-03-01T11:05:49;101460.75;;;21.91;27.89
76827;BME280;65788;52.284;20.890;2023-03-01T11:08:29;101460.27;;;21.88;27.80
76827;BME280;65788;52.284;20.890;2023-03-01T11:13:36;101459.46;;;21.89;27.78
76827;BME280;65788;52.284;20.890;2023-03-01T11:16:06;101458.21;;;21.88;27.79
76827;BME280;65788;52.284;20.890;2023-03-01T11:18:34;101454.61;;;21.87;27.91
76827;BME280;65788;52.284;20.890;2023-03-01T11:21:02;101447.66;;;21.83;28.02
76827;BME280;65788;52.284;20.890;2023-03-01T11:23:30;101441.96;;;21.79;28.01
76827;BME280;65788;52.284;20.890;2023-03-01T11:26:05;101435.24;;;21.82;28.03
76827;BME280;65788;52.284;20.890;2023-03-01T11:28:34;101434.42;;;21.88;27.93
76827;BME280;65788;52.284;20.890;2023-03-01T11:31:10;101434.77;;;21.84;27.79
76827;BME280;65788;52.284;20.890;2023-03-01T11:38:42;101429.88;;;21.88;28.01
76827;BME280;65788;52.284;20.890;2023-03-01T11:41:14;101432.24;;;21.82;28.06
76827;BME280;65788;52.284;20.890;2023-03-01T11:54:33;101428.51;;;21.74;28.04
76827;BME280;65788;52.284;20.890;2023-03-01T12:02:20;101433.27;;;21.72;28.14
76827;BME280;65788;52.284;20.890;2023-03-01T12:25:45;101423.61;;;21.92;28.24
76827;BME280;65788;52.284;20.890;2023-03-01T12:35:54;101414.92;;;21.79;28.08
76827;BME280;65788;52.284;20.890;2023-03-01T12:41:01;101413.30;;;21.81;28.00
76827;BME280;65788;52.284;20.890;2023-03-01T12:43:36;101408.23;;;21.76;28.04
76827;BME280;65788;52.284;20.890;2023-03-01T12:51:03;101406.46;;;21.80;28.02
76827;BME280;65788;52.284;20.890;2023-03-01T12:53:36;101400.94;;;21.78;28.16
76827;BME280;65788;52.284;20.890;2023-03-01T12:56:17;101398.16;;;21.72;28.21
76827;BME280;65788;52.284;20.890;2023-03-01T13:01:31;101393.95;;;21.72;28.18
76827;BME280;65788;52.284;20.890;2023-03-01T13:06:35;101395.73;;;21.70;28.19
76827;BME280;65788;52.284;20.890;2023-03-01T13:09:11;101389.11;;;21.77;28.20
76827;BME280;65788;52.284;20.890;2023-03-01T13:11:42;101388.13;;;21.69;28.26
76827;BME280;65788;52.284;20.890;2023-03-01T13:16:52;101387.70;;;21.77;28.37
76827;BME280;65788;52.284;20.890;2023-03-01T13:21:51;101387.11;;;21.82;28.21
76827;BME280;65788;52.284;20.890;2023-03-01T13:24:34;101387.73;;;21.81;28.18
76827;BME280;65788;52.284;20.890;2023-03-01T13:29:50;101383.72;;;21.85;28.47
76827;BME280;65788;52.284;20.890;2023-03-01T13:32:28;101376.13;;;21.90;28.10
76827;BME280;65788;52.284;20.890;2023-03-01T13:34:56;101378.95;;;21.85;28.09
76827;BME280;65788;52.284;20.890;2023-03-01T13:37:24;101377.20;;;21.83;28.12
76827;BME280;65788;52.284;20.890;2023-03-01T13:39:57;101374.75;;;21.80;28.14
76827;BME280;65788;52.284;20.890;2023-03-01T13:42:35;101376.13;;;21.78;28.23
76827;BME280;65788;52.284;20.890;2023-03-01T13:45:17;101371.78;;;21.97;28.70
76827;BME280;65788;52.284;20.890;2023-03-01T13:47:45;101370.65;;;21.84;28.46
76827;BME280;65788;52.284;20.890;2023-03-01T13:50:20;101369.36;;;21.80;28.32
76827;BME280;65788;52.284;20.890;2023-03-01T13:52:52;101370.25;;;21.90;28.48
76827;BME280;65788;52.284;20.890;2023-03-01T13:55:24;101368.95;;;21.98;28.68
76827;BME280;65788;52.284;20.890;2023-03-01T13:57:56;101363.55;;;21.94;28.19
76827;BME280;65788;52.284;20.890;2023-03-01T14:03:05;101363.33;;;21.97;28.25
76827;BME280;65788;52.284;20.890;2023-03-01T14:05:34;101355.27;;;21.97;28.24
76827;BME280;65788;52.284;20.890;2023-03-01T14:08:03;101354.39;;;21.94;28.28
76827;BME280;65788;52.284;20.890;2023-03-01T14:10:41;101353.98;;;21.93;28.22
76827;BME280;65788;52.284;20.890;2023-03-01T14:15:42;101349.54;;;21.97;28.37
76827;BME280;65788;52.284;20.890;2023-03-01T14:20:44;101341.81;;;21.95;28.41
76827;BME280;65788;52.284;20.890;2023-03-01T14:23:21;101343.23;;;21.94;28.47
76827;BME280;65788;52.284;20.890;2023-03-01T14:25:53;101342.77;;;21.91;28.50
76827;BME280;65788;52.284;20.890;2023-03-01T14:28:24;101344.05;;;21.99;28.48
76827;BME280;65788;52.284;20.890;2023-03-01T14:30:58;101338.31;;;21.91;28.63
76827;BME280;65788;52.284;20.890;2023-03-01T14:33:27;101341.67;;;21.78;28.69
76827;BME280;65788;52.284;20.890;2023-03-01T14:36:00;101338.20;;;21.81;28.63
76827;BME280;65788;52.284;20.890;2023-03-01T14:38:38;101335.55;;;21.75;28.80
76827;BME280;65788;52.284;20.890;2023-03-01T14:43:36;101331.66;;;21.64;28.78
76827;BME280;65788;52.284;20.890;2023-03-01T14:46:04;101331.01;;;21.57;28.95
76827;BME280;65788;52.284;20.890;2023-03-01T14:48:31;101328.74;;;21.57;29.02